Time;durP1;ratioP1;P1;durP2;ratioP2;P2;SDS_P1;SDS_P2;PMS_P1;PMS_P2;Temp;Humidity;BMP_temperature;BMP_pressure;BME280_temperature;BME280_humidity;BME280_pressure;Samples;Min_cycle;Max_cycle;Signal;HPM_P1;HPM_P2
2024/02/29 00:01:13;;;;;;;17.15;9.88;;;6.90;99.90;;;;;;8445469;28;20502;-77
2024/02/29 00:05:30;;;;;;;14.38;9.35;;;6.90;99.90;;;;;;8446989;28;20444;-76
2024/02/29 00:09:32;;;;;;;14.45;9.00;;;6.90;99.90;;;;;;8451501;28;20039;-76
2024/02/29 00:13:34;;;;;;;16.30;8.63;;;6.90;99.90;;;;;;8456072;28;20370;-76
2024/02/29 00:17:36;;;;;;;15.00;8.00;;;6.90;99.90;;;;;;8445786;28;20062;-76
2024/02/29 00:21:38;;;;;;;17.77;9.40;;;7.00;99.90;;;;;;8456340;28;20414;-76
2024/02/29 00:25:42;;;;;;;11.25;6.28;;;6.90;99.90;;;;;;8451837;28;20482;-76
2024/02/29 00:29:44;;;;;;;17.67;9.75;;;7.00;99.90;;;;;;8455542;28;20073;-76
2024/02/29 00:33:46;;;;;;;13.18;7.60;;;7.00;99.90;;;;;;8459588;28;20482;-76
2024/02/29 00:37:48;;;;;;;14.38;7.78;;;7.00;99.90;;;;;;8454578;28;20054;-76
2024/02/29 00:58:13;;;;;;;17.17;9.43;;;7.00;99.90;;;;;;8452375;28;20141;-76
2024/02/29 01:02:15;;;;;;;13.40;7.65;;;7.00;99.90;;;;;;8456155;28;20104;-76
2024/02/29 01:06:17;;;;;;;14.15;7.93;;;7.00;99.90;;;;;;8449288;28;20044;-76
2024/02/29 01:10:19;;;;;;;14.45;8.05;;;7.00;99.90;;;;;;8452072;28;20048;-76
2024/02/29 01:19:43;;;;;;;19.35;9.45;;;7.00;99.90;;;;;;8453102;28;20052;-76
2024/02/29 01:23:45;;;;;;;13.88;8.63;;;7.00;99.90;;;;;;8456574;28;20059;-76
2024/02/29 01:27:47;;;;;;;17.42;8.75;;;7.10;99.90;;;;;;8456466;28;20047;-76
2024/02/29 01:31:49;;;;;;;15.48;8.75;;;7.10;99.90;;;;;;8461227;28;20036;-76
2024/02/29 01:35:51;;;;;;;14.38;7.35;;;7.10;99.90;;;;;;8478734;27;20044;-76
2024/02/29 01:39:52;;;;;;;16.58;8.85;;;7.10;99.90;;;;;;8450112;28;20497;-76
2024/02/29 01:43:55;;;;;;;17.17;8.30;;;7.10;99.90;;;;;;8458614;28;20044;-76
2024/02/29 01:47:57;;;;;;;15.57;9.15;;;7.10;99.90;;;;;;8452677;28;20067;-76
2024/02/29 01:51:59;;;;;;;13.20;7.30;;;7.10;99.90;;;;;;8458232;28;20099;-76
2024/02/29 01:56:01;;;;;;;11.57;6.20;;;7.20;99.90;;;;;;8456959;27;20131;-76
2024/02/29 02:00:04;;;;;;;20.40;9.20;;;7.20;99.90;;;;;;8454769;28;20051;-76
2024/02/29 02:04:06;;;;;;;16.75;8.57;;;7.20;99.90;;;;;;8454625;27;20044;-76
2024/02/29 02:08:08;;;;;;;15.18;8.35;;;7.20;99.90;;;;;;8454128;28;20427;-76
2024/02/29 02:17:32;;;;;;;16.75;8.57;;;7.30;99.90;;;;;;8453631;28;20054;-76
2024/02/29 02:21:35;;;;;;;17.65;7.95;;;7.30;99.90;;;;;;8456193;28;20052;-76
2024/02/29 02:26:16;;;;;;;16.90;8.65;;;7.30;99.90;;;;;;8454567;28;20104;-76
2024/02/29 02:30:17;;;;;;;15.55;8.82;;;7.30;99.90;;;;;;8456247;28;20039;-76
2024/02/29 02:34:20;;;;;;;17.83;7.82;;;7.30;99.90;;;;;;8452562;28;20055;-76
2024/02/29 02:38:22;;;;;;;13.18;7.45;;;7.30;99.90;;;;;;8461584;27;20051;-76
2024/02/29 02:42:24;;;;;;;17.40;8.20;;;7.40;99.90;;;;;;8458330;28;20051;-76
2024/02/29 02:46:35;;;;;;;19.00;8.85;;;7.40;99.90;;;;;;8455725;28;20047;-76
2024/02/29 02:50:37;;;;;;;15.15;7.65;;;7.40;99.90;;;;;;8447548;28;20079;-76
2024/02/29 02:54:39;;;;;;;17.05;7.90;;;7.50;99.90;;;;;;8453345;28;20075;-76
2024/02/29 02:58:41;;;;;;;14.77;6.93;;;7.40;99.90;;;;;;8452854;28;20134;-76
2024/02/29 03:02:43;;;;;;;12.23;7.10;;;7.50;99.90;;;;;;8458807;28;20055;-76
2024/02/29 03:06:45;;;;;;;16.50;8.48;;;7.50;99.90;;;;;;8453662;28;20040;-76
2024/02/29 03:10:47;;;;;;;12.88;6.03;;;7.50;99.90;;;;;;8456910;28;20065;-76
2024/02/29 03:14:49;;;;;;;11.52;6.40;;;7.50;99.90;;;;;;8446250;28;20050;-76
2024/02/29 03:24:07;;;;;;;16.95;8.20;;;7.50;99.90;;;;;;8444323;28;20080;-77
2024/02/29 03:28:09;;;;;;;17.08;8.32;;;7.50;99.90;;;;;;8453392;27;20047;-76
2024/02/29 03:32:11;;;;;;;17.20;8.73;;;7.40;99.90;;;;;;8453790;28;20514;-76
2024/02/29 03:36:12;;;;;;;15.50;7.70;;;7.40;99.90;;;;;;8455014;28;20526;-76
2024/02/29 03:40:14;;;;;;;14.55;7.93;;;7.40;99.90;;;;;;8454350;27;20168;-76
2024/02/29 03:44:16;;;;;;;17.83;8.15;;;7.40;99.90;;;;;;8455132;28;20501;-76
2024/02/29 03:49:15;;;;;;;12.63;6.70;;;7.30;99.90;;;;;;8453420;28;20047;-77
2024/02/29 03:53:17;;;;;;;13.50;7.13;;;7.30;99.90;;;;;;8456810;28;20119;-76
2024/02/29 03:57:50;;;;;;;13.45;7.28;;;7.30;99.90;;;;;;8450426;28;20040;-76
2024/02/29 04:01:52;;;;;;;16.77;7.88;;;7.20;99.90;;;;;;8454351;28;20092;-76
2024/02/29 04:05:53;;;;;;;17.15;7.18;;;7.20;99.90;;;;;;8448500;28;20039;-76
2024/02/29 04:09:55;;;;;;;13.38;6.97;;;7.20;99.90;;;;;;8449385;28;20407;-76
2024/02/29 04:13:57;;;;;;;17.63;8.20;;;7.10;99.90;;;;;;8451858;28;20079;-76
2024/02/29 04:18:00;;;;;;;16.50;8.02;;;7.00;99.90;;;;;;8453736;28;20051;-76
2024/02/29 04:22:02;;;;;;;13.20;7.15;;;7.00;99.90;;;;;;8455589;28;20046;-76
2024/02/29 04:26:04;;;;;;;17.45;8.95;;;7.00;99.90;;;;;;8455202;28;20079;-76
2024/02/29 04:30:08;;;;;;;16.00;8.02;;;6.90;99.90;;;;;;8451425;28;20040;-76
2024/02/29 04:34:10;;;;;;;19.55;9.02;;;6.90;99.90;;;;;;8450136;28;20048;-76
2024/02/29 04:43:35;;;;;;;16.10;8.07;;;6.90;99.90;;;;;;8453548;28;20027;-76
2024/02/29 04:47:37;;;;;;;14.38;8.07;;;6.90;99.90;;;;;;8454123;28;20403;-77
2024/02/29 04:51:38;;;;;;;15.43;8.60;;;6.90;99.90;;;;;;8452303;28;20047;-76
2024/02/29 04:55:41;;;;;;;17.25;8.30;;;6.90;99.90;;;;;;8457173;28;20139;-76
2024/02/29 04:59:43;;;;;;;17.38;8.82;;;6.80;99.90;;;;;;8461450;28;20051;-76
2024/02/29 05:03:46;;;;;;;22.13;9.27;;;6.80;99.90;;;;;;8461291;28;20058;-76
2024/02/29 05:07:48;;;;;;;19.75;8.80;;;6.80;99.90;;;;;;8460885;28;20515;-76
2024/02/29 05:11:50;;;;;;;18.10;8.65;;;6.80;99.90;;;;;;8459191;28;20043;-76
2024/02/29 05:15:51;;;;;;;17.65;9.02;;;6.90;99.90;;;;;;8456169;28;20043;-76
2024/02/29 05:19:56;;;;;;;15.88;8.38;;;6.90;99.90;;;;;;8457112;28;20067;-76
2024/02/29 05:23:57;;;;;;;17.95;7.93;;;6.90;99.90;;;;;;8458535;28;20036;-76
2024/02/29 05:27:59;;;;;;;14.48;7.68;;;6.90;99.90;;;;;;8459271;28;20051;-76
2024/02/29 05:32:01;;;;;;;16.92;8.20;;;6.90;99.90;;;;;;8457781;28;20040;-76
2024/02/29 05:36:03;;;;;;;17.67;8.43;;;6.90;99.90;;;;;;8456818;28;20399;-76
2024/02/29 05:40:05;;;;;;;13.80;7.50;;;6.90;99.90;;;;;;8461362;27;20051;-76
2024/02/29 05:44:10;;;;;;;14.73;6.43;;;7.00;99.90;;;;;;8456161;28;20069;-76
2024/02/29 05:48:12;;;;;;;15.93;7.70;;;6.90;99.90;;;;;;8464028;27;20047;-76
2024/02/29 05:52:16;;;;;;;18.70;9.48;;;7.00;99.90;;;;;;8460052;28;20130;-76
2024/02/29 05:56:18;;;;;;;17.40;8.68;;;7.00;99.90;;;;;;8458864;28;20130;-76
2024/02/29 06:00:22;;;;;;;17.60;8.00;;;7.00;99.90;;;;;;8460366;27;20051;-76
2024/02/29 06:04:23;;;;;;;17.58;9.40;;;7.10;99.90;;;;;;8456558;28;20081;-76
2024/02/29 06:08:25;;;;;;;14.43;8.48;;;7.00;99.90;;;;;;8457809;28;20433;-76
2024/02/29 06:12:29;;;;;;;17.88;8.68;;;7.00;99.90;;;;;;8458212;28;20054;-76
2024/02/29 06:16:31;;;;;;;18.10;9.52;;;7.10;99.90;;;;;;8460304;28;20050;-76
2024/02/29 06:20:32;;;;;;;13.45;7.60;;;7.10;99.90;;;;;;8456665;27;20047;-76
2024/02/29 06:24:35;;;;;;;15.32;8.32;;;7.10;99.90;;;;;;8458617;28;20092;-77
2024/02/29 06:28:37;;;;;;;15.68;7.95;;;7.10;99.90;;;;;;8459364;28;20100;-76
2024/02/29 06:32:43;;;;;;;17.63;8.10;;;7.10;99.90;;;;;;8457664;27;20044;-76
2024/02/29 06:36:45;;;;;;;19.52;9.07;;;7.20;99.90;;;;;;8459206;28;20490;-76
2024/02/29 06:40:47;;;;;;;17.45;9.18;;;7.20;99.90;;;;;;8467684;27;20057;-76
2024/02/29 06:44:50;;;;;;;14.80;8.43;;;7.20;99.90;;;;;;8462753;28;20062;-76
2024/02/29 06:48:52;;;;;;;15.45;7.43;;;7.30;99.90;;;;;;8464223;28;20062;-76
2024/02/29 06:52:53;;;;;;;17.42;8.30;;;7.30;99.90;;;;;;8462707;27;20194;-76
2024/02/29 06:56:55;;;;;;;14.02;7.22;;;7.30;99.90;;;;;;8462148;27;20122;-76
2024/02/29 07:00:57;;;;;;;16.45;8.10;;;7.30;99.90;;;;;;8464439;27;20043;-76
2024/02/29 07:04:59;;;;;;;15.45;7.57;;;7.30;99.90;;;;;;8459554;27;20039;-76
2024/02/29 07:09:01;;;;;;;15.68;8.23;;;7.40;99.90;;;;;;8460904;28;20097;-76
2024/02/29 07:13:03;;;;;;;13.85;7.80;;;7.40;99.90;;;;;;8459699;27;20044;-76
2024/02/29 07:17:05;;;;;;;16.13;7.93;;;7.40;99.90;;;;;;8454949;28;20055;-76
2024/02/29 07:21:07;;;;;;;13.60;7.45;;;7.50;99.90;;;;;;8437676;27;20039;-76
2024/02/29 07:25:09;;;;;;;16.15;7.70;;;7.50;99.90;;;;;;8453234;27;20403;-76
2024/02/29 07:34:15;;;;;;;13.10;7.35;;;7.60;99.90;;;;;;8450692;28;20039;-76
2024/02/29 07:38:17;;;;;;;18.02;8.00;;;7.60;99.90;;;;;;8450770;28;20103;-76
2024/02/29 07:42:19;;;;;;;15.60;7.97;;;7.60;99.90;;;;;;8456874;28;20044;-76
2024/02/29 07:46:21;;;;;;;13.10;7.32;;;7.60;99.90;;;;;;8453267;28;20044;-77
2024/02/29 07:50:23;;;;;;;14.95;7.20;;;7.60;99.90;;;;;;8453809;28;20517;-76
2024/02/29 07:54:25;;;;;;;14.30;7.15;;;7.60;99.90;;;;;;8452452;28;20040;-76
2024/02/29 07:58:26;;;;;;;12.98;7.38;;;7.70;99.90;;;;;;8450916;28;20044;-76
2024/02/29 08:02:28;;;;;;;15.55;7.75;;;7.70;99.90;;;;;;8454923;28;20479;-76
2024/02/29 08:06:30;;;;;;;15.23;8.32;;;7.70;99.90;;;;;;8456262;27;20075;-76
2024/02/29 08:10:32;;;;;;;14.52;7.82;;;7.70;99.90;;;;;;8445275;28;20036;-76
2024/02/29 08:14:34;;;;;;;11.38;6.13;;;7.80;99.90;;;;;;8453319;28;20043;-76
2024/02/29 08:18:35;;;;;;;15.00;7.60;;;7.80;99.90;;;;;;8445617;28;20054;-76
2024/02/29 08:22:39;;;;;;;13.85;7.28;;;7.90;99.90;;;;;;8458605;28;20051;-76
2024/02/29 08:26:41;;;;;;;11.70;6.25;;;7.90;99.90;;;;;;8456103;28;20142;-76
2024/02/29 08:30:43;;;;;;;13.90;7.53;;;7.90;99.90;;;;;;8459902;28;20047;-76
2024/02/29 08:34:45;;;;;;;17.30;7.88;;;7.90;99.90;;;;;;8464805;28;20047;-76
2024/02/29 08:38:47;;;;;;;15.07;7.43;;;8.00;99.90;;;;;;8461921;28;20466;-76
2024/02/29 08:42:49;;;;;;;14.25;7.75;;;8.00;99.90;;;;;;8459656;28;20499;-76
2024/02/29 08:46:51;;;;;;;15.77;7.30;;;7.90;99.90;;;;;;8464657;28;20172;-76
2024/02/29 08:50:52;;;;;;;11.75;5.53;;;7.90;99.90;;;;;;8466320;27;20444;-76
2024/02/29 08:54:54;;;;;;;15.48;7.68;;;7.90;99.90;;;;;;8463566;28;20143;-76
2024/02/29 08:58:56;;;;;;;14.55;7.43;;;7.90;99.90;;;;;;8462280;28;20070;-76
2024/02/29 09:02:58;;;;;;;12.75;6.93;;;7.90;99.90;;;;;;8462054;28;20055;-76
2024/02/29 09:07:00;;;;;;;19.25;7.68;;;8.00;99.90;;;;;;8463614;28;20044;-76
2024/02/29 09:11:03;;;;;;;14.77;7.18;;;8.00;99.90;;;;;;8461146;28;20047;-76
2024/02/29 09:15:06;;;;;;;13.57;6.65;;;8.00;99.90;;;;;;8452503;28;20094;-76
2024/02/29 09:19:07;;;;;;;14.60;7.90;;;8.00;99.90;;;;;;8457346;28;20075;-76
2024/02/29 09:23:09;;;;;;;14.15;7.60;;;8.00;99.90;;;;;;8459759;28;20082;-76
2024/02/29 09:27:11;;;;;;;13.60;7.78;;;8.00;99.90;;;;;;8464579;28;20124;-76
2024/02/29 09:31:13;;;;;;;13.77;7.50;;;8.10;99.90;;;;;;8462103;28;20048;-76
2024/02/29 09:35:15;;;;;;;16.73;7.18;;;8.10;99.90;;;;;;8462435;28;20058;-76
2024/02/29 09:39:17;;;;;;;15.95;8.02;;;8.10;99.90;;;;;;8462225;28;20091;-77
2024/02/29 09:43:20;;;;;;;14.45;7.30;;;8.10;99.90;;;;;;8458740;28;20058;-76
2024/02/29 09:47:23;;;;;;;14.00;6.30;;;8.10;99.90;;;;;;8446263;28;20127;-76
2024/02/29 09:51:25;;;;;;;12.23;6.60;;;8.20;99.90;;;;;;8456458;28;20044;-76
2024/02/29 09:55:30;;;;;;;14.68;7.70;;;8.20;99.90;;;;;;8455076;27;20043;-76
2024/02/29 09:59:33;;;;;;;14.40;8.15;;;8.20;99.90;;;;;;8459146;28;20044;-76
2024/02/29 10:03:36;;;;;;;13.43;6.75;;;8.20;99.90;;;;;;8464071;27;20067;-76
2024/02/29 10:07:43;;;;;;;13.95;6.85;;;8.30;99.90;;;;;;8457193;28;20075;-76
2024/02/29 10:11:47;;;;;;;12.63;6.70;;;8.30;99.90;;;;;;8457808;28;20089;-76
2024/02/29 10:16:09;;;;;;;14.07;7.78;;;8.30;99.90;;;;;;8454252;28;20126;-75
2024/02/29 10:20:16;;;;;;;13.35;7.68;;;8.30;99.90;;;;;;8461331;28;20056;-76
2024/02/29 10:24:24;;;;;;;12.13;6.72;;;8.30;99.90;;;;;;8456203;28;20062;-76
2024/02/29 10:28:27;;;;;;;;;;;8.40;99.90;;;;;;8461930;28;20410;-76
2024/02/29 10:32:29;;;;;;;12.80;7.30;;;8.40;99.90;;;;;;8459366;28;19920;-77
2024/02/29 10:36:32;;;;;;;15.75;7.90;;;8.40;99.90;;;;;;8456813;28;20047;-76
2024/02/29 10:40:34;;;;;;;12.68;6.72;;;8.40;99.90;;;;;;8459413;28;20047;-76
2024/02/29 10:44:42;;;;;;;13.48;7.10;;;8.40;99.90;;;;;;8458075;28;20422;-76
2024/02/29 10:48:55;;;;;;;11.75;6.72;;;8.40;99.90;;;;;;8460439;28;20056;-76
2024/02/29 10:53:02;;;;;;;12.57;7.22;;;8.50;99.90;;;;;;8455860;28;20040;-76
2024/02/29 10:57:14;;;;;;;15.50;8.27;;;8.50;99.90;;;;;;8453711;28;20050;-76
2024/02/29 11:01:16;;;;;;;13.25;6.35;;;8.50;99.90;;;;;;8459142;28;20289;-76
2024/02/29 11:05:19;;;;;;;13.30;6.47;;;8.60;99.90;;;;;;8451999;28;20039;-76
2024/02/29 11:09:24;;;;;;;14.57;7.03;;;8.50;99.90;;;;;;8459949;27;20072;-76
2024/02/29 11:13:29;;;;;;;14.02;7.07;;;8.60;99.90;;;;;;8456187;28;20043;-76
2024/02/29 11:17:33;;;;;;;13.10;6.45;;;8.60;99.90;;;;;;8448434;28;20375;-76
2024/02/29 11:26:41;;;;;;;15.45;7.95;;;8.60;99.90;;;;;;8457327;28;20740;-76
2024/02/29 11:30:50;;;;;;;11.68;6.70;;;8.60;99.90;;;;;;8458132;28;20047;-76
2024/02/29 11:34:52;;;;;;;11.77;7.03;;;8.60;99.90;;;;;;8458705;28;20093;-76
2024/02/29 11:38:57;;;;;;;13.00;7.22;;;8.60;99.90;;;;;;8458789;28;20048;-77
2024/02/29 11:43:01;;;;;;;11.32;5.65;;;8.60;99.90;;;;;;8456997;27;20059;-76
2024/02/29 11:47:03;;;;;;;11.40;6.78;;;8.70;99.90;;;;;;8455427;28;20056;-76
2024/02/29 11:51:09;;;;;;;11.73;6.75;;;8.70;99.90;;;;;;8456844;28;20039;-76
2024/02/29 11:55:11;;;;;;;14.00;6.65;;;8.70;99.90;;;;;;8455611;28;20134;-76
2024/02/29 11:59:15;;;;;;;11.90;5.95;;;8.80;99.90;;;;;;8457637;28;20473;-76
2024/02/29 12:03:17;;;;;;;9.85;6.20;;;8.80;99.90;;;;;;8456522;28;20516;-76
2024/02/29 12:07:20;;;;;;;10.40;5.90;;;8.80;99.90;;;;;;8462580;27;20549;-77
2024/02/29 12:11:23;;;;;;;9.73;5.75;;;8.80;99.90;;;;;;8456239;28;20464;-76
2024/02/29 12:15:25;;;;;;;14.10;6.57;;;8.80;99.90;;;;;;8443741;28;20142;-76
2024/02/29 12:19:34;;;;;;;10.23;5.78;;;8.80;99.90;;;;;;8431416;28;20548;-76
2024/02/29 12:23:38;;;;;;;11.32;6.32;;;8.90;99.90;;;;;;8426691;28;20063;-77
2024/02/29 12:27:41;;;;;;;12.15;6.25;;;8.90;99.90;;;;;;8433419;28;20051;-77
2024/02/29 12:31:44;;;;;;;12.18;6.65;;;8.90;99.90;;;;;;8426213;28;20066;-76
2024/02/29 12:35:50;;;;;;;7.65;4.80;;;8.90;99.90;;;;;;8425747;28;20259;-77
2024/02/29 12:39:56;;;;;;;11.10;6.70;;;8.90;99.90;;;;;;8427877;28;20047;-77
2024/02/29 12:44:00;;;;;;;9.65;5.75;;;8.90;99.90;;;;;;8424768;28;20052;-76
2024/02/29 12:48:02;;;;;;;8.98;5.53;;;8.90;99.90;;;;;;8420460;28;20140;-76
2024/02/29 12:52:04;;;;;;;10.63;6.18;;;9.00;99.90;;;;;;8428061;28;20411;-77
2024/02/29 12:56:08;;;;;;;10.98;5.95;;;8.90;99.90;;;;;;8425429;28;20487;-76
2024/02/29 13:00:18;;;;;;;8.45;5.38;;;9.00;99.90;;;;;;8427427;28;20055;-77
2024/02/29 13:04:20;;;;;;;10.43;6.05;;;9.00;99.90;;;;;;8435131;28;20105;-76
2024/02/29 13:08:22;;;;;;;11.40;6.97;;;9.00;99.90;;;;;;8438772;28;20071;-76
2024/02/29 13:12:24;;;;;;;11.70;7.05;;;9.00;99.90;;;;;;8431450;28;20131;-76
2024/02/29 13:16:25;;;;;;;6.97;4.00;;;9.00;99.90;;;;;;8427915;28;20076;-77
2024/02/29 13:20:27;;;;;;;11.20;6.93;;;9.00;99.90;;;;;;8433482;28;20044;-76
2024/02/29 13:24:29;;;;;;;11.20;6.70;;;9.00;99.90;;;;;;8432830;27;20048;-76
2024/02/29 13:28:31;;;;;;;10.05;6.63;;;9.10;99.90;;;;;;8434493;28;20093;-76
2024/02/29 13:32:33;;;;;;;11.18;7.40;;;9.10;99.90;;;;;;8434499;28;20145;-76
2024/02/29 13:36:35;;;;;;;11.77;7.13;;;9.10;99.90;;;;;;8437863;28;20096;-76
2024/02/29 13:40:37;;;;;;;11.57;7.00;;;9.10;99.90;;;;;;8444617;28;20568;-76
2024/02/29 13:44:39;;;;;;;13.05;7.05;;;9.10;99.90;;;;;;8429432;28;20102;-76
2024/02/29 13:48:45;;;;;;;10.23;6.82;;;9.10;99.90;;;;;;8431896;28;20048;-76
2024/02/29 13:52:48;;;;;;;11.23;6.57;;;9.10;99.90;;;;;;8435832;28;20381;-76
2024/02/29 13:56:51;;;;;;;12.35;7.32;;;9.10;99.90;;;;;;8436070;28;20113;-76
2024/02/29 14:00:55;;;;;;;12.93;8.57;;;9.10;99.90;;;;;;8429535;28;20044;-76
2024/02/29 14:04:57;;;;;;;9.40;5.65;;;9.10;99.90;;;;;;8427198;28;20048;-76
2024/02/29 14:08:58;;;;;;;12.38;6.80;;;9.10;99.90;;;;;;8431002;27;20040;-76
2024/02/29 14:13:00;;;;;;;10.18;6.53;;;9.20;99.90;;;;;;8434353;27;20044;-76
2024/02/29 14:17:03;;;;;;;12.27;6.53;;;9.20;99.90;;;;;;8428767;27;20083;-76
2024/02/29 14:21:05;;;;;;;10.68;6.90;;;9.20;99.90;;;;;;8434452;27;20047;-76
2024/02/29 14:25:07;;;;;;;10.95;7.05;;;9.30;99.90;;;;;;8430877;27;20105;-76
2024/02/29 14:29:09;;;;;;;11.63;7.35;;;9.30;99.90;;;;;;8430614;28;20048;-76
2024/02/29 14:33:20;;;;;;;11.48;6.60;;;9.30;99.90;;;;;;8439360;27;20101;-76
2024/02/29 14:37:22;;;;;;;10.68;6.85;;;9.30;99.90;;;;;;8437773;28;20139;-76
2024/02/29 14:41:26;;;;;;;10.38;5.75;;;9.30;99.90;;;;;;8427883;28;20142;-76
2024/02/29 14:45:28;;;;;;;9.65;6.03;;;9.40;99.90;;;;;;8427046;28;20384;-76
2024/02/29 14:49:30;;;;;;;11.32;7.53;;;9.40;99.90;;;;;;8429184;28;20470;-76
2024/02/29 14:53:32;;;;;;;11.13;7.07;;;9.40;99.90;;;;;;8429091;28;20050;-76
2024/02/29 14:57:34;;;;;;;7.68;4.38;;;9.30;99.90;;;;;;8444257;28;20051;-76
2024/02/29 15:01:36;;;;;;;9.88;6.15;;;9.40;99.90;;;;;;8429233;28;20052;-76
2024/02/29 15:05:38;;;;;;;7.05;3.88;;;9.40;99.90;;;;;;8426746;28;20411;-76
2024/02/29 15:09:39;;;;;;;10.45;5.63;;;9.40;99.90;;;;;;8433211;28;20051;-76
2024/02/29 15:13:41;;;;;;;10.15;6.05;;;9.40;99.90;;;;;;8426629;28;20071;-76
2024/02/29 15:17:43;;;;;;;9.63;4.97;;;9.40;99.90;;;;;;8434949;28;20056;-76
2024/02/29 15:21:46;;;;;;;8.38;5.22;;;9.40;99.90;;;;;;8439383;28;20079;-76
2024/02/29 15:25:48;;;;;;;8.13;4.97;;;9.40;99.90;;;;;;8433046;28;20067;-76
2024/02/29 15:29:50;;;;;;;11.55;5.82;;;9.40;99.90;;;;;;8432789;28;20048;-76
2024/02/29 15:33:51;;;;;;;9.80;5.88;;;9.30;99.90;;;;;;8427681;28;20151;-76
2024/02/29 15:37:54;;;;;;;8.40;5.07;;;9.30;99.90;;;;;;8436242;28;20410;-76
2024/02/29 15:41:56;;;;;;;8.13;5.07;;;9.30;99.90;;;;;;8440872;28;20047;-76
2024/02/29 15:45:58;;;;;;;8.80;5.07;;;9.30;99.90;;;;;;8429660;28;20044;-76
2024/02/29 15:50:00;;;;;;;8.40;4.80;;;9.30;99.90;;;;;;8436994;28;20039;-76
2024/02/29 15:54:02;;;;;;;8.68;4.78;;;9.30;99.90;;;;;;8425035;27;20040;-76
2024/02/29 15:58:04;;;;;;;8.93;4.85;;;9.30;99.90;;;;;;8428030;28;20059;-76
2024/02/29 16:02:06;;;;;;;8.57;4.75;;;9.30;99.90;;;;;;8439079;28;20104;-76
2024/02/29 16:06:08;;;;;;;7.88;4.85;;;9.30;99.90;;;;;;8433004;27;20044;-76
2024/02/29 16:10:10;;;;;;;8.80;5.00;;;9.30;99.90;;;;;;8430149;28;20498;-76
2024/02/29 16:14:13;;;;;;;8.75;5.07;;;9.20;99.90;;;;;;8430982;28;20070;-76
2024/02/29 16:18:14;;;;;;;8.57;4.63;;;9.20;99.90;;;;;;8434057;28;20055;-76
2024/02/29 16:22:16;;;;;;;9.77;5.32;;;9.20;99.90;;;;;;8426984;28;20090;-76
2024/02/29 16:26:18;;;;;;;8.75;5.35;;;9.20;99.90;;;;;;8429620;28;20417;-76
2024/02/29 16:30:20;;;;;;;9.63;5.53;;;9.20;99.90;;;;;;8434807;28;20036;-76
2024/02/29 16:34:22;;;;;;;7.38;4.78;;;9.20;99.90;;;;;;8437751;28;20093;-76
2024/02/29 16:38:24;;;;;;;7.70;4.65;;;9.20;99.90;;;;;;8426602;28;20139;-76
2024/02/29 16:42:26;;;;;;;8.50;5.20;;;9.20;99.90;;;;;;8427507;28;20043;-76
2024/02/29 16:46:28;;;;;;;7.82;4.93;;;9.10;99.90;;;;;;8422692;28;20157;-76
2024/02/29 16:50:30;;;;;;;7.68;4.40;;;9.10;99.90;;;;;;8432029;28;20044;-76
2024/02/29 16:54:31;;;;;;;6.88;4.45;;;9.10;99.90;;;;;;8433589;28;20052;-76
2024/02/29 16:58:33;;;;;;;8.95;4.72;;;9.10;99.90;;;;;;8444415;28;20646;-76
2024/02/29 17:02:35;;;;;;;6.75;4.75;;;9.10;99.90;;;;;;8439060;28;20089;-76
2024/02/29 17:06:37;;;;;;;7.95;5.05;;;9.10;99.90;;;;;;8447175;28;20076;-76
2024/02/29 17:10:40;;;;;;;6.63;4.30;;;9.10;99.90;;;;;;8430243;27;20112;-77
2024/02/29 17:14:42;;;;;;;7.93;5.22;;;9.00;99.90;;;;;;8430155;28;20510;-76
2024/02/29 17:18:44;;;;;;;9.18;5.70;;;9.00;99.90;;;;;;8443532;28;20108;-76
2024/02/29 17:22:47;;;;;;;7.80;5.15;;;9.00;99.90;;;;;;8440719;28;20184;-76
2024/02/29 17:26:50;;;;;;;8.70;5.10;;;9.00;99.90;;;;;;8443402;28;20407;-76
2024/02/29 17:30:53;;;;;;;7.30;4.13;;;9.00;99.90;;;;;;8432470;28;20720;-76
2024/02/29 17:34:55;;;;;;;8.02;4.80;;;9.00;99.90;;;;;;8449220;27;20044;-76
2024/02/29 17:38:57;;;;;;;9.07;5.72;;;9.00;99.90;;;;;;8441528;28;20107;-76
2024/02/29 17:42:59;;;;;;;10.50;5.80;;;9.00;99.90;;;;;;8434821;28;20044;-77
2024/02/29 17:47:00;;;;;;;9.48;5.93;;;9.00;99.90;;;;;;8433149;28;20091;-76
2024/02/29 17:51:04;;;;;;;7.93;4.97;;;9.00;99.90;;;;;;8432681;28;20036;-76
2024/02/29 17:55:06;;;;;;;8.85;5.60;;;9.00;99.90;;;;;;8431840;27;20047;-76
2024/02/29 17:59:08;;;;;;;9.35;5.57;;;9.00;99.90;;;;;;8437092;28;20123;-76
2024/02/29 18:03:10;;;;;;;9.13;5.15;;;9.00;99.90;;;;;;8441341;28;20828;-76
2024/02/29 18:07:11;;;;;;;8.35;5.53;;;9.00;99.90;;;;;;8441687;28;20069;-76
2024/02/29 18:11:13;;;;;;;11.32;5.93;;;9.00;99.90;;;;;;8435785;28;20084;-76
2024/02/29 18:15:15;;;;;;;9.15;6.05;;;9.00;99.90;;;;;;8431311;27;20158;-76
2024/02/29 18:19:17;;;;;;;8.73;5.63;;;9.00;99.90;;;;;;8428242;27;20051;-76
2024/02/29 18:23:47;;;;;;;10.45;5.95;;;9.00;99.90;;;;;;8431451;28;20075;-76
2024/02/29 18:27:49;;;;;;;8.77;5.38;;;9.00;99.90;;;;;;8431985;28;20408;-76
2024/02/29 18:31:53;;;;;;;11.38;6.10;;;9.00;99.90;;;;;;8429824;27;20126;-76
2024/02/29 18:35:54;;;;;;;9.23;5.47;;;9.00;99.90;;;;;;8427186;28;20459;-76
2024/02/29 18:39:56;;;;;;;7.88;5.28;;;9.00;99.90;;;;;;8431695;27;20120;-76
2024/02/29 18:43:58;;;;;;;9.57;5.45;;;9.00;99.90;;;;;;8433051;28;20078;-77
2024/02/29 18:48:00;;;;;;;8.80;5.72;;;9.00;99.90;;;;;;8430724;28;20052;-76
2024/02/29 18:52:03;;;;;;;9.90;5.47;;;8.90;99.90;;;;;;8434814;27;20134;-76
2024/02/29 18:56:05;;;;;;;9.52;6.05;;;9.00;99.90;;;;;;8431040;28;20098;-76
2024/02/29 19:00:08;;;;;;;7.63;4.78;;;9.00;99.90;;;;;;8430538;28;20063;-76
2024/02/29 19:04:11;;;;;;;10.57;5.63;;;9.00;99.90;;;;;;8433821;28;20092;-76
2024/02/29 19:08:13;;;;;;;8.52;5.25;;;9.00;99.90;;;;;;8430011;27;20550;-77
2024/02/29 19:12:15;;;;;;;10.07;6.32;;;9.00;99.90;;;;;;8431729;28;20555;-76
2024/02/29 19:16:17;;;;;;;8.70;5.30;;;9.00;99.90;;;;;;8423863;28;20384;-76
2024/02/29 19:20:19;;;;;;;7.82;4.72;;;9.00;99.90;;;;;;8427296;28;20047;-77
2024/02/29 19:24:20;;;;;;;9.50;5.60;;;9.00;99.90;;;;;;8431956;28;20105;-76
2024/02/29 19:28:22;;;;;;;10.48;5.28;;;9.00;99.90;;;;;;8438904;28;20382;-76
2024/02/29 19:32:25;;;;;;;9.77;6.13;;;9.00;99.90;;;;;;8430052;28;20071;-76
2024/02/29 19:36:27;;;;;;;9.10;5.93;;;9.00;99.90;;;;;;8428913;28;20047;-76
2024/02/29 19:40:29;;;;;;;8.65;5.43;;;9.00;99.90;;;;;;8431457;28;20040;-76
2024/02/29 19:44:31;;;;;;;9.18;5.90;;;9.00;99.90;;;;;;8433590;28;20120;-75
2024/02/29 19:48:34;;;;;;;8.48;5.18;;;9.00;99.90;;;;;;8419918;28;20036;-77
2024/02/29 19:52:36;;;;;;;10.45;6.20;;;9.00;99.90;;;;;;8423549;28;20088;-76
2024/02/29 19:56:41;;;;;;;8.88;5.45;;;9.00;99.90;;;;;;8432296;28;20083;-76
2024/02/29 20:00:46;;;;;;;9.70;6.00;;;9.00;99.90;;;;;;8428949;28;20043;-76
2024/02/29 20:04:51;;;;;;;8.93;5.40;;;9.00;99.90;;;;;;8425361;28;20478;-76
2024/02/29 20:08:53;;;;;;;11.15;6.88;;;9.00;99.90;;;;;;8429103;28;20050;-76
2024/02/29 20:13:19;;;;;;;13.73;7.82;;;8.90;99.90;;;;;;8432589;28;20695;-76
2024/02/29 20:17:22;;;;;;;10.53;6.40;;;8.90;99.90;;;;;;8428606;28;20054;-76
2024/02/29 20:21:24;;;;;;;12.05;7.90;;;9.00;99.90;;;;;;8422414;28;20044;-76
2024/02/29 20:25:26;;;;;;;11.88;7.25;;;8.90;99.90;;;;;;8423082;28;20059;-76
2024/02/29 20:29:28;;;;;;;11.88;7.53;;;8.90;99.90;;;;;;8431027;28;20082;-76
2024/02/29 20:33:30;;;;;;;11.75;6.70;;;9.00;99.90;;;;;;8431420;28;20474;-76
2024/02/29 20:37:32;;;;;;;11.93;7.28;;;9.00;99.90;;;;;;8428284;28;20450;-76
2024/02/29 20:41:34;;;;;;;11.35;7.30;;;9.00;99.90;;;;;;8426310;28;20139;-76
2024/02/29 20:45:35;;;;;;;11.90;7.28;;;9.00;99.90;;;;;;8386603;28;1156349;-76
2024/02/29 20:49:38;;;;;;;8.93;5.05;;;9.00;99.90;;;;;;8437252;28;20415;-76
2024/02/29 20:53:40;;;;;;;10.52;6.50;;;9.00;99.90;;;;;;8433140;28;20503;-77
2024/02/29 20:57:43;;;;;;;12.27;7.07;;;9.00;99.90;;;;;;8433938;28;20051;-76
2024/02/29 21:01:44;;;;;;;9.73;6.30;;;9.00;99.90;;;;;;8425070;28;20056;-77
2024/02/29 21:05:47;;;;;;;10.07;6.88;;;9.00;99.90;;;;;;8429343;28;20370;-76
2024/02/29 21:09:48;;;;;;;11.07;6.65;;;9.00;99.90;;;;;;8434367;28;20059;-76
2024/02/29 21:13:50;;;;;;;8.65;5.45;;;9.00;99.90;;;;;;8437217;28;20051;-76
2024/02/29 21:17:53;;;;;;;11.15;6.50;;;9.00;99.90;;;;;;8425172;28;20078;-77
2024/02/29 21:21:55;;;;;;;10.60;6.90;;;9.00;99.90;;;;;;8431189;28;20097;-77
2024/02/29 21:25:57;;;;;;;11.25;7.40;;;9.00;99.90;;;;;;8421580;28;20051;-76
2024/02/29 21:29:59;;;;;;;11.50;7.13;;;9.00;99.90;;;;;;8420621;28;20044;-76
2024/02/29 21:34:01;;;;;;;11.95;7.20;;;9.00;99.90;;;;;;8428268;28;20051;-78
2024/02/29 21:38:03;;;;;;;11.93;6.80;;;9.00;99.90;;;;;;8423476;27;20063;-77
2024/02/29 21:42:05;;;;;;;12.20;7.45;;;9.00;99.90;;;;;;8428040;28;20055;-77
2024/02/29 21:46:07;;;;;;;12.18;6.97;;;9.00;99.90;;;;;;8432082;28;20055;-76
2024/02/29 21:50:10;;;;;;;10.93;6.38;;;9.00;99.90;;;;;;8438739;27;20054;-77
2024/02/29 21:54:12;;;;;;;10.65;6.75;;;9.00;99.90;;;;;;8433047;28;20043;-77
2024/02/29 21:58:13;;;;;;;10.27;6.35;;;9.00;99.90;;;;;;8430310;28;20078;-77